This is the latest recevied weather packets stored in our database for station/object R1ZAAG-14. If no packets are shown the sender has not sent any weather packets the latest 1 day(s).
| Time | Temp. | Humidity | Pressure | Rain* | Wind** | Luminosity | Snow |
|---|---|---|---|---|---|---|---|
| 1778097386 | 1.67° C | 60% | 1010.5 hPa | - | - | - | - |
| 1778095585 | 2.22° C | 60% | 1010.3 hPa | - | - | - | - |
| 1778094684 | 2.78° C | 64% | 1010.1 hPa | - | - | - | - |
| 1778092883 | 5.56° C | 54% | 1009.8 hPa | - | - | - | - |
| 1778090181 | 8.33° C | 49% | 1009.5 hPa | - | - | - | - |
| 1778086575 | 11.11° C | 45% | 1009.2 hPa | - | - | - | - |
| 1778083889 | 10° C | 46% | 1008.9 hPa | - | - | - | - |
| 1778082988 | 7.22° C | 51% | 1008.9 hPa | - | - | - | - |
| 1778081187 | 5.56° C | 57% | 1008.6 hPa | - | - | - | - |
| 1778080285 | 8.89° C | 47% | 1008.4 hPa | - | - | - | - |
| 1778076682 | 3.89° C | 60% | 1008.3 hPa | - | - | - | - |
| 1778075782 | 3.33° C | 68% | 1008.1 hPa | - | - | - | - |
| 1778070378 | 6.11° C | 57% | 1007.3 hPa | - | - | - | - |
| 1778064974 | 3.89° C | 100% | 1006.6 hPa | - | - | - | - |
| 1778063202 | 1.67° C | 91% | 1006.6 hPa | - | - | - | - |
| 1778063190 | 1.67° C | 91% | 1006.6 hPa | - | - | - | - |
| 1778060494 | 1.67° C | 90% | 1006 hPa | - | - | - | - |
| 1778060489 | 1.67° C | 90% | 1006 hPa | - | - | - | - |
| 1778059588 | 1.67° C | 86% | 1005.8 hPa | - | - | - | - |
| 1778058693 | 3.33° C | 62% | 1005.4 hPa | - | - | - | - |
| 1778058688 | 3.33° C | 62% | 1005.4 hPa | - | - | - | - |
| 1778057792 | 4.44° C | 52% | 1005.1 hPa | - | - | - | - |
| 1778057787 | 4.44° C | 52% | 1005.1 hPa | - | - | - | - |
| 1778055086 | 4.44° C | 52% | 1004.5 hPa | - | - | - | - |
| 1778054190 | 3.33° C | 67% | 1004.3 hPa | - | - | - | - |
* Rain since midnight (hover to see other rain measurements)
** Current wind speed in m/s (hover to see current wind gust speed)